Time;durP1;ratioP1;P1;durP2;ratioP2;P2;SDS_P1;SDS_P2;PMS_P1;PMS_P2;Temp;Humidity;BMP_temperature;BMP_pressure;BME280_temperature;BME280_humidity;BME280_pressure;Samples;Min_cycle;Max_cycle;Signal;HPM_P1;HPM_P2
2021/12/17 00:01:06;;;;;;;;;;;7.70;99.90;;;7.88;60.77;100024.66;6065768;23;20004;-82
2021/12/17 00:03:44;;;;;;;;;;;7.70;99.90;;;7.82;60.67;100015.56;6066427;23;20061;-81
2021/12/17 00:06:16;;;;;;;;;;;7.80;99.90;;;7.83;60.89;100034.25;6054188;23;19922;-82
2021/12/17 00:08:43;;;;;;;;;;;7.70;99.90;;;7.82;60.95;100020.97;6076240;23;19928;-82
2021/12/17 00:11:10;;;;;;;;;;;7.80;99.90;;;7.83;61.05;100022.63;6067048;23;20016;-82
2021/12/17 00:13:36;;;;;;;;;;;7.70;99.90;;;7.92;60.54;100009.66;6044981;23;19932;-82
2021/12/17 00:16:11;;;;;;;;;;;7.70;99.90;;;7.89;60.79;100021.72;6067416;23;20012;-82
2021/12/17 00:18:51;;;;;;;;;;;7.80;99.90;;;7.92;60.57;100023.97;6056317;23;19952;-82
2021/12/17 00:43:58;;;;;;;;;;;7.60;99.90;;;7.78;60.93;99996.28;6076809;23;19918;-82
2021/12/17 00:49:03;;;;;;;;;;;7.70;99.90;;;7.83;60.64;100025.31;5992056;23;20013;-81
2021/12/17 00:54:22;;;;;;;;;;;7.60;99.90;;;7.72;61.00;100018.81;6056772;23;19918;-82
2021/12/17 00:56:53;;;;;;;;;;;7.60;99.90;;;7.77;60.53;100010.03;6020515;23;19917;-82
2021/12/17 00:59:19;;;;;;;;;;;7.60;99.90;;;7.75;60.40;100012.94;6052901;23;20013;-82
2021/12/17 01:01:45;;;;;;;;;;;7.70;99.90;;;7.74;60.62;100007.78;6020770;23;19921;-82
2021/12/17 01:04:10;;;;;;;;;;;7.70;99.90;;;7.82;60.55;100007.47;6043921;23;20388;-81
2021/12/17 01:06:37;;;;;;;;;;;7.60;99.90;;;7.72;60.32;100016.09;6043199;23;20312;-82
2021/12/17 01:09:03;;;;;;;;;;;7.60;99.90;;;7.64;60.66;100019.09;6043612;23;20357;-82
2021/12/17 01:11:29;;;;;;;;;;;7.60;99.90;;;7.55;60.83;100007.75;6067094;23;19956;-82
2021/12/17 01:13:55;;;;;;;;;;;7.50;99.90;;;7.48;61.21;100004.31;6044345;23;20439;-81
2021/12/17 01:16:21;;;;;;;;;;;7.50;99.90;;;7.43;61.08;100012.28;6043198;23;19928;-82
2021/12/17 01:42:44;;;;;;;;;;;7.30;99.90;;;7.38;61.28;99998.63;6057051;23;19956;-82
2021/12/17 01:45:09;;;;;;;;;;;7.30;99.90;;;7.39;61.36;99994.84;6042906;23;20285;-82
2021/12/17 01:47:35;;;;;;;;;;;7.30;99.90;;;7.34;61.42;100000.09;6042758;23;19932;-82
2021/12/17 01:55:49;;;;;;;;;;;7.30;99.90;;;7.37;61.44;100010.44;6057067;23;19922;-81
2021/12/17 02:01:00;;;;;;;;;;;7.30;99.90;;;7.36;61.53;99995.31;6054826;23;19996;-81
2021/12/17 02:03:26;;;;;;;;;;;7.20;99.90;;;7.33;61.38;100011.97;6066147;23;19928;-82
2021/12/17 02:05:52;;;;;;;;;;;7.20;99.90;;;7.25;61.39;99998.72;6018303;23;19925;-82
2021/12/17 02:08:18;;;;;;;;;;;7.20;99.90;;;7.25;61.12;99999.56;6019533;23;20009;-82
2021/12/17 02:28:44;;;;;;;;;;;7.10;99.90;;;7.26;60.63;99990.41;6042537;23;19927;-81
2021/12/17 02:29:56;;;;;;;;;;;7.20;99.90;;;7.23;60.35;99979.25;6055130;23;20229;-82
2021/12/17 02:32:25;;;;;;;;;;;7.20;99.90;;;7.25;60.29;99979.84;6055769;23;20016;-81
2021/12/17 02:37:36;;;;;;;;;;;7.20;99.90;;;7.31;60.17;99978.97;6046931;23;19921;-82
2021/12/17 02:45:32;;;;;;;;;;;7.20;99.90;;;7.17;60.29;99978.25;6054747;23;19977;-82
2021/12/17 02:48:13;;;;;;;;;;;7.10;99.90;;;7.06;59.86;99974.41;6057605;23;19922;-82
2021/12/17 02:50:51;;;;;;;;;;;7.10;99.90;;;7.10;60.42;99977.50;6075588;23;20000;-82
2021/12/17 02:53:17;;;;;;;;;;;7.00;99.90;;;7.11;59.91;99965.66;6051478;23;19927;-81
2021/12/17 02:55:46;;;;;;;;;;;7.00;99.90;;;7.06;59.59;99971.72;6041998;23;20341;-82
2021/12/17 02:58:12;;;;;;;;;;;7.10;99.90;;;6.99;59.56;99954.75;6041926;23;19929;-82
2021/12/17 03:00:39;;;;;;;;;;;7.00;99.90;;;7.06;59.55;99965.50;6041970;23;19918;-82
2021/12/17 03:03:06;;;;;;;;;;;6.90;99.90;;;7.01;60.05;99971.56;6041090;23;20020;-82
2021/12/17 03:05:33;;;;;;;;;;;6.90;99.90;;;7.00;61.02;99974.50;6017832;23;19921;-81
2021/12/17 03:07:59;;;;;;;;;;;6.80;99.90;;;7.06;60.08;99977.13;6017032;23;19945;-82
2021/12/17 03:10:25;;;;;;;;;;;6.80;99.90;;;7.04;60.99;99981.91;6064013;23;20590;-82
2021/12/17 03:12:57;;;;;;;;;;;6.70;99.90;;;7.12;60.78;99987.03;6016053;23;20004;-81
2021/12/17 03:18:48;;;;;;;;;;;6.70;99.90;;;7.12;60.96;99980.78;6041113;23;20008;-81
2021/12/17 03:26:01;;;;;;;;;;;6.70;99.90;;;6.95;60.45;99989.47;6041308;23;19928;-82
2021/12/17 03:28:27;;;;;;;;;;;6.70;99.90;;;6.95;60.99;99980.53;6042187;23;19928;-82
2021/12/17 03:30:53;;;;;;;;;;;6.70;99.90;;;6.87;60.28;99983.50;6041592;23;19969;-82
2021/12/17 03:33:20;;;;;;;;;;;6.70;99.90;;;6.81;59.75;99984.38;6017750;23;20584;-82
2021/12/17 03:35:47;;;;;;;;;;;6.60;99.90;;;6.82;59.72;99981.50;6017550;23;19922;-82
2021/12/17 03:38:13;;;;;;;;;;;6.60;99.90;;;6.76;60.38;99995.00;6041295;23;19921;-81
2021/12/17 03:40:41;;;;;;;;;;;6.60;99.90;;;6.69;60.00;99978.88;6075011;23;19921;-82
2021/12/17 03:43:12;;;;;;;;;;;6.50;99.90;;;6.70;60.64;99984.06;6064590;23;20005;-81
2021/12/17 03:45:40;;;;;;;;;;;6.50;99.90;;;6.92;60.75;99989.06;6052000;23;20008;-81
2021/12/17 03:48:05;;;;;;;;;;;6.50;99.90;;;6.82;61.04;99988.72;6042677;23;20326;-81
2021/12/17 03:50:35;;;;;;;;;;;6.40;99.90;;;6.70;60.24;99985.94;6043195;23;19921;-81
2021/12/17 03:53:03;;;;;;;;;;;6.40;99.90;;;6.72;59.75;99990.06;6052852;23;20349;-81
2021/12/17 03:55:29;;;;;;;;;;;6.40;99.90;;;6.68;59.24;100005.00;6041357;23;19965;-82
2021/12/17 03:57:58;;;;;;;;;;;6.40;99.90;;;6.69;59.12;99993.19;6066133;23;19922;-81
2021/12/17 04:00:24;;;;;;;;;;;6.50;99.90;;;6.77;59.21;99986.72;6019517;23;19922;-82
2021/12/17 04:02:50;;;;;;;;;;;6.50;99.90;;;6.73;58.78;99977.41;6018144;23;19921;-82
2021/12/17 04:05:16;;;;;;;;;;;6.50;99.90;;;6.70;58.56;99981.34;6041894;23;20595;-82
2021/12/17 04:07:43;;;;;;;;;;;6.50;99.90;;;6.62;58.45;99989.72;6065339;23;20249;-82
2021/12/17 04:10:09;;;;;;;;;;;6.40;99.90;;;6.63;58.51;99988.66;6042104;23;19921;-81
2021/12/17 04:12:49;;;;;;;;;;;6.40;99.90;;;6.72;57.80;99990.06;6018617;23;19957;-80
2021/12/17 04:15:16;;;;;;;;;;;6.40;99.90;;;6.70;57.97;99984.06;6076257;23;19956;-81
2021/12/17 04:17:46;;;;;;;;;;;6.50;99.90;;;6.63;57.80;99999.44;6067588;23;20250;-82
2021/12/17 04:20:12;;;;;;;;;;;6.50;99.90;;;6.56;57.98;100003.25;6020932;23;20334;-81
2021/12/17 04:22:38;;;;;;;;;;;6.40;99.90;;;6.47;57.94;99973.84;6091450;23;20000;-81
2021/12/17 04:25:04;;;;;;;;;;;6.30;99.90;;;6.41;57.92;99984.66;6042410;23;19925;-81
2021/12/17 04:27:30;;;;;;;;;;;6.30;99.90;;;6.49;58.22;99987.13;6018609;23;19917;-81
2021/12/17 04:29:57;;;;;;;;;;;6.20;99.90;;;6.52;57.57;99981.28;6018860;23;19983;-81
2021/12/17 04:32:23;;;;;;;;;;;6.30;99.90;;;6.49;58.44;99993.34;6043425;23;19932;-81
2021/12/17 04:34:49;;;;;;;;;;;6.30;99.90;;;6.48;57.98;99986.28;6018873;23;20362;-81
2021/12/17 04:37:15;;;;;;;;;;;6.30;99.90;;;6.42;59.40;99972.88;6042394;23;19996;-81
2021/12/17 04:39:41;;;;;;;;;;;6.20;99.90;;;6.45;59.68;99964.34;6042334;23;20009;-81
2021/12/17 04:42:15;;;;;;;;;;;6.30;99.90;;;6.43;59.43;99969.13;6066892;23;19947;-81
2021/12/17 04:44:48;;;;;;;;;;;6.20;99.90;;;6.46;59.31;99965.97;6067007;23;20032;-82
2021/12/17 04:57:57;;;;;;;;;;;6.20;99.90;;;6.39;61.46;99982.22;6073326;23;19960;-80
2021/12/17 05:00:28;;;;;;;;;;;6.30;99.90;;;6.35;61.36;99969.38;6032595;23;19921;-80
2021/12/17 05:02:57;;;;;;;;;;;6.20;99.90;;;6.29;61.68;99966.50;6038503;23;20346;-80
2021/12/17 05:05:29;;;;;;;;;;;6.10;99.90;;;6.32;62.08;99957.16;6062272;23;19957;-81
2021/12/17 05:08:10;;;;;;;;;;;6.20;99.90;;;6.26;61.96;99964.25;6070403;23;20052;-80
2021/12/17 05:18:41;;;;;;;;;;;6.10;99.90;;;6.24;61.14;99949.34;6042320;23;20013;-81
2021/12/17 05:21:09;;;;;;;;;;;6.10;99.90;;;6.17;60.85;99951.25;6046604;23;19921;-81
2021/12/17 05:23:39;;;;;;;;;;;6.10;99.90;;;6.19;60.61;99950.00;6036197;23;19926;-80
2021/12/17 05:26:07;;;;;;;;;;;6.00;99.90;;;6.13;61.26;99963.50;6069188;23;20296;-81
2021/12/17 05:28:33;;;;;;;;;;;6.00;99.90;;;6.06;60.66;99958.16;6012418;23;19953;-81
2021/12/17 05:31:00;;;;;;;;;;;5.90;99.90;;;6.09;61.01;99977.41;6059248;23;19921;-81
2021/12/17 05:33:25;;;;;;;;;;;5.90;99.90;;;6.11;60.48;99942.19;6036043;23;19932;-81
2021/12/17 05:35:52;;;;;;;;;;;5.90;99.90;;;6.11;60.37;99931.41;6012478;23;20007;-81
2021/12/17 05:38:19;;;;;;;;;;;5.90;99.90;;;6.11;60.90;99942.19;6035960;23;20313;-83
2021/12/17 05:40:44;;;;;;;;;;;5.90;99.90;;;6.11;61.41;99954.78;6044186;23;19984;-84
2021/12/17 05:43:11;;;;;;;;;;;5.90;99.90;;;6.06;61.02;99960.84;6013915;23;19941;-81
2021/12/17 05:45:48;;;;;;;;;;;5.90;99.90;;;6.12;60.17;99956.47;6039464;23;19918;-81
2021/12/17 05:48:20;;;;;;;;;;;5.90;99.90;;;6.23;59.12;99963.84;6073175;23;19992;-81
2021/12/17 05:50:47;;;;;;;;;;;6.00;99.90;;;6.15;59.36;99966.81;6049314;23;19932;-82
2021/12/17 05:53:13;;;;;;;;;;;6.00;99.90;;;6.10;59.38;99956.66;6063893;23;19929;-82
2021/12/17 05:55:39;;;;;;;;;;;6.00;99.90;;;6.06;60.47;99953.59;6088770;23;20004;-81
2021/12/17 05:58:06;;;;;;;;;;;5.90;99.90;;;5.96;59.53;99953.22;6041288;23;19918;-81
2021/12/17 06:00:32;;;;;;;;;;;5.90;99.90;;;6.00;59.87;99951.75;6064457;23;19917;-81
2021/12/17 06:02:58;;;;;;;;;;;5.80;99.90;;;6.05;60.13;99957.31;6041849;23;19965;-81
2021/12/17 06:05:24;;;;;;;;;;;5.80;99.90;;;5.93;61.04;99944.72;6041807;23;19928;-81
2021/12/17 06:07:50;;;;;;;;;;;5.80;99.90;;;5.91;61.01;99963.78;6043864;23;19921;-81
2021/12/17 06:10:16;;;;;;;;;;;5.80;99.90;;;5.83;60.74;99974.81;6025768;23;20410;-81
2021/12/17 06:12:42;;;;;;;;;;;5.70;99.90;;;5.81;60.31;99969.63;6024780;23;20322;-81
2021/12/17 06:15:11;;;;;;;;;;;5.70;99.90;;;5.74;60.95;99974.22;6047978;23;19944;-81
2021/12/17 06:17:37;;;;;;;;;;;5.60;99.90;;;5.64;60.88;99971.16;6073146;23;19922;-81
2021/12/17 06:20:04;;;;;;;;;;;5.50;99.90;;;5.64;61.19;99979.22;6073977;23;19944;-80
2021/12/17 06:22:30;;;;;;;;;;;5.50;99.90;;;5.68;61.37;99977.78;6072685;23;19945;-81
2021/12/17 06:24:56;;;;;;;;;;;5.50;99.90;;;5.65;60.69;99984.41;6073599;23;19928;-81
2021/12/17 06:27:23;;;;;;;;;;;5.50;99.90;;;5.65;61.46;99981.72;6073331;23;19943;-80
2021/12/17 06:29:49;;;;;;;;;;;5.50;99.90;;;5.55;61.34;99986.72;6022769;23;19937;-81
2021/12/17 06:32:16;;;;;;;;;;;5.40;99.90;;;5.61;60.35;99985.84;6042568;23;20000;-81
2021/12/17 06:34:42;;;;;;;;;;;5.50;99.90;;;5.61;61.34;99976.97;6038819;23;20024;-81
2021/12/17 06:37:07;;;;;;;;;;;5.50;99.90;;;5.60;60.24;99997.66;6016054;23;20301;-82
2021/12/17 06:39:33;;;;;;;;;;;5.50;99.90;;;5.66;59.66;99982.53;6064662;23;19921;-82
2021/12/17 06:41:59;;;;;;;;;;;5.60;99.90;;;5.56;59.16;99987.53;6039678;23;19922;-81
2021/12/17 06:44:26;;;;;;;;;;;5.50;99.90;;;5.58;60.53;99974.69;6062485;23;19924;-81
2021/12/17 06:49:44;;;;;;;;;;;5.50;99.90;;;5.62;60.17;99976.75;6065475;23;19921;-82
2021/12/17 06:55:09;;;;;;;;;;;5.40;99.90;;;5.57;59.27;99981.94;6042831;23;20020;-83
2021/12/17 07:01:01;;;;;;;;;;;5.40;99.90;;;5.63;61.16;99958.75;5959697;24;19975;-82
2021/12/17 07:22:04;;;;;;;;;;;5.30;99.90;;;5.37;61.37;99965.84;6053331;23;19944;-83
2021/12/17 07:32:48;;;;;;;;;;;5.30;99.90;;;5.37;61.75;99957.78;6062371;23;20016;-82
2021/12/17 07:40:30;;;;;;;;;;;5.20;99.90;;;5.31;61.59;99955.09;6054085;23;19921;-82
2021/12/17 07:42:57;;;;;;;;;;;5.30;99.90;;;5.35;61.62;99962.53;6038326;23;19934;-82
2021/12/17 07:45:23;;;;;;;;;;;5.20;99.90;;;5.47;62.14;99967.25;6016625;23;20330;-82
2021/12/17 07:47:48;;;;;;;;;;;5.30;99.90;;;5.52;61.65;99964.75;6042076;23;20417;-83
2021/12/17 07:50:14;;;;;;;;;;;5.30;99.90;;;5.55;61.70;99959.81;6017422;23;19956;-82
2021/12/17 07:52:40;;;;;;;;;;;5.40;99.90;;;5.62;61.85;99965.16;6040444;23;19922;-82
2021/12/17 07:55:06;;;;;;;;;;;5.50;99.90;;;5.62;62.08;99952.53;6040654;23;19925;-82
2021/12/17 07:57:32;;;;;;;;;;;5.60;99.90;;;5.78;61.86;99948.53;6041134;23;19928;-82
2021/12/17 07:59:58;;;;;;;;;;;5.70;99.90;;;5.83;61.09;99951.41;6017496;23;20004;-82
2021/12/17 08:02:24;;;;;;;;;;;5.70;99.90;;;5.98;60.94;99950.31;6041425;23;19921;-82
2021/12/17 08:04:50;;;;;;;;;;;5.80;99.90;;;6.08;61.14;99943.44;6041443;23;19922;-82
2021/12/17 08:07:16;;;;;;;;;;;5.90;99.90;;;6.15;60.58;99946.06;6064180;23;20156;-82
2021/12/17 08:09:43;;;;;;;;;;;6.00;99.90;;;6.18;60.38;99948.34;6041214;23;19917;-82
2021/12/17 08:12:10;;;;;;;;;;;6.10;99.90;;;6.23;60.07;99948.53;6040960;23;20476;-82
2021/12/17 08:14:36;;;;;;;;;;;6.10;99.90;;;6.32;60.24;99959.03;6016001;23;19928;-82
2021/12/17 08:17:33;;;;;;;;;;;6.10;99.90;;;6.21;59.69;99965.97;6039001;23;19961;-83
2021/12/17 08:25:41;;;;;;;;;;;6.30;99.90;;;6.37;59.63;99968.13;6053978;23;19992;-82
2021/12/17 08:28:09;;;;;;;;;;;6.30;99.90;;;6.42;59.73;99954.00;6075889;23;19929;-82
2021/12/17 08:30:39;;;;;;;;;;;6.30;99.90;;;6.46;59.73;99984.84;6041790;23;19928;-82
2021/12/17 08:33:06;;;;;;;;;;;6.30;99.90;;;6.54;59.43;99968.44;6041537;23;20136;-83
2021/12/17 08:35:35;;;;;;;;;;;6.40;99.90;;;6.56;59.54;99966.31;6040409;23;20301;-82
2021/12/17 08:38:04;;;;;;;;;;;6.40;99.90;;;6.64;59.50;99962.53;6016469;23;19969;-82
2021/12/17 08:40:31;;;;;;;;;;;6.50;99.90;;;6.73;59.16;99962.03;6028334;23;19921;-82
2021/12/17 08:42:57;;;;;;;;;;;6.50;99.90;;;6.78;58.94;99971.34;6016020;23;19917;-82
2021/12/17 08:45:23;;;;;;;;;;;6.60;99.90;;;6.82;58.23;99967.16;6063088;23;20671;-83
2021/12/17 08:47:49;;;;;;;;;;;6.70;99.90;;;6.93;58.15;99985.31;6017793;23;19925;-82
2021/12/17 08:50:16;;;;;;;;;;;6.80;99.90;;;6.93;58.63;99977.25;6041117;23;20376;-82
2021/12/17 08:52:42;;;;;;;;;;;6.80;99.90;;;6.92;57.54;99994.44;6063988;23;19965;-83
2021/12/17 08:55:10;;;;;;;;;;;6.70;99.90;;;6.99;57.36;99995.22;6016910;23;20242;-82
2021/12/17 08:57:36;;;;;;;;;;;6.70;99.90;;;7.01;58.03;99987.75;6042165;23;19921;-82
2021/12/17 09:00:08;;;;;;;;;;;6.80;99.90;;;7.08;57.31;99990.38;6064546;23;19928;-82
2021/12/17 09:02:37;;;;;;;;;;;6.90;99.90;;;6.96;57.04;99992.97;6042042;23;19921;-83
2021/12/17 09:05:04;;;;;;;;;;;6.80;99.90;;;6.96;57.42;99998.38;6040773;23;19971;-82
2021/12/17 09:07:30;;;;;;;;;;;6.80;99.90;;;6.79;57.11;99997.25;6040285;23;19921;-83
2021/12/17 09:09:56;;;;;;;;;;;6.80;99.90;;;6.72;57.41;100000.84;6040461;23;20024;-82
2021/12/17 09:12:22;;;;;;;;;;;6.60;99.90;;;6.62;57.43;100007.78;6020040;23;19955;-83
2021/12/17 09:14:48;;;;;;;;;;;6.50;99.90;;;6.45;57.72;100008.28;6043846;23;20008;-83
2021/12/17 09:17:14;;;;;;;;;;;6.40;99.90;;;6.42;58.01;100007.91;6019282;23;19921;-83
2021/12/17 09:19:40;;;;;;;;;;;6.20;99.90;;;6.47;58.77;99998.13;6017309;23;19925;-83
2021/12/17 09:22:09;;;;;;;;;;;6.30;99.90;;;6.49;58.83;99993.34;6063485;23;20477;-83
2021/12/17 09:24:34;;;;;;;;;;;6.30;99.90;;;6.52;58.67;100008.25;6014166;23;20488;-83
2021/12/17 09:27:01;;;;;;;;;;;6.30;99.90;;;6.39;58.88;100005.66;6038798;23;19925;-82
2021/12/17 09:29:27;;;;;;;;;;;6.30;99.90;;;6.45;59.06;99997.50;6041631;23;19929;-82
2021/12/17 09:31:53;;;;;;;;;;;6.20;99.90;;;6.55;58.88;100002.41;6039663;23;19918;-85
2021/12/17 09:34:19;;;;;;;;;;;6.30;99.90;;;6.57;59.00;100000.34;6034929;23;19948;-85
2021/12/17 09:36:45;;;;;;;;;;;6.40;99.90;;;6.60;58.53;99999.91;6035200;23;20382;-85
2021/12/17 09:39:11;;;;;;;;;;;6.40;99.90;;;6.64;58.38;99981.41;6035220;23;19931;-85
2021/12/17 09:41:37;;;;;;;;;;;6.40;99.90;;;6.65;58.44;99981.19;6011564;23;19941;-85
2021/12/17 09:44:03;;;;;;;;;;;6.40;99.90;;;6.71;58.12;99979.47;6031689;23;19928;-85
2021/12/17 09:46:29;;;;;;;;;;;6.60;99.90;;;6.68;58.45;99975.34;6034976;23;19928;-85
2021/12/17 09:48:57;;;;;;;;;;;6.60;99.90;;;6.76;58.87;99976.94;6011694;23;19922;-85
2021/12/17 09:51:23;;;;;;;;;;;6.60;99.90;;;6.80;58.34;99959.28;6012180;23;20250;-85
2021/12/17 09:53:49;;;;;;;;;;;6.60;99.90;;;6.77;58.72;99967.84;6034957;23;19922;-85
2021/12/17 09:56:15;;;;;;;;;;;6.60;99.90;;;6.68;58.04;99964.56;6011170;23;20024;-85
2021/12/17 09:58:41;;;;;;;;;;;6.50;99.90;;;6.72;59.09;99944.22;6035322;23;19974;-85
2021/12/17 10:01:07;;;;;;;;;;;6.40;99.90;;;6.69;59.02;99941.13;6034214;23;19929;-85
2021/12/17 10:03:33;;;;;;;;;;;6.50;99.90;;;6.69;58.46;99949.22;6011189;23;19921;-85
2021/12/17 10:05:59;;;;;;;;;;;6.50;99.90;;;6.67;58.55;99949.44;6035729;23;19921;-85
2021/12/17 10:08:25;;;;;;;;;;;6.40;99.90;;;6.63;58.53;99939.31;6011935;23;19988;-85
2021/12/17 10:11:04;;;;;;;;;;;6.40;99.90;;;6.71;57.21;99945.25;6011570;23;20356;-86
2021/12/17 10:13:32;;;;;;;;;;;6.60;99.90;;;6.67;57.84;99944.06;6011804;23;19949;-86
2021/12/17 10:16:01;;;;;;;;;;;6.50;99.90;;;6.66;57.52;99952.34;6058793;23;19928;-86
2021/12/17 10:18:41;;;;;;;;;;;6.50;99.90;;;6.60;58.06;99935.19;6035728;23;20246;-85
2021/12/17 10:21:11;;;;;;;;;;;6.50;99.90;;;6.71;58.27;99947.13;6034936;23;19921;-85
2021/12/17 10:23:40;;;;;;;;;;;6.50;99.90;;;6.76;58.68;99933.00;6035332;23;19972;-86
2021/12/17 10:26:16;;;;;;;;;;;6.60;99.90;;;6.98;58.41;99931.53;6035699;23;19969;-85
2021/12/17 10:28:56;;;;;;;;;;;6.80;99.90;;;7.14;57.12;99922.03;6010746;23;20368;-86
2021/12/17 10:31:22;;;;;;;;;;;6.90;99.90;;;7.22;56.96;99927.13;6034335;23;19921;-86
2021/12/17 10:33:52;;;;;;;;;;;7.10;99.90;;;7.25;56.52;99913.22;6034946;23;19905;-86
2021/12/17 10:36:41;;;;;;;;;;;7.10;99.90;;;7.27;55.37;99935.38;6034357;23;19922;-85
2021/12/17 10:39:20;;;;;;;;;;;7.30;99.90;;;7.19;55.14;99935.69;6042065;23;19921;-86
2021/12/17 10:41:47;;;;;;;;;;;7.00;99.90;;;7.21;55.49;99930.88;6069895;23;19922;-85
2021/12/17 10:44:13;;;;;;;;;;;7.10;99.90;;;7.25;55.38;99917.75;6031678;23;19925;-85
2021/12/17 10:46:56;;;;;;;;;;;7.10;99.90;;;7.31;55.96;99936.59;6035516;23;19917;-85
2021/12/17 10:49:25;;;;;;;;;;;7.20;99.90;;;7.41;55.23;99936.06;6027318;23;20008;-85
2021/12/17 10:52:06;;;;;;;;;;;7.20;99.90;;;7.46;55.01;99936.22;6034815;23;19921;-85
2021/12/17 10:54:33;;;;;;;;;;;7.30;99.90;;;7.50;55.06;99934.69;6014623;23;19925;-85
2021/12/17 10:56:59;;;;;;;;;;;7.40;99.90;;;7.41;54.32;99930.69;6037603;23;19921;-86
2021/12/17 10:59:28;;;;;;;;;;;7.30;99.90;;;7.32;54.58;99934.72;6013423;23;19925;-86
2021/12/17 11:01:59;;;;;;;;;;;7.30;99.90;;;7.18;54.83;99932.16;6036651;23;19960;-86
2021/12/17 11:04:27;;;;;;;;;;;7.20;99.90;;;7.23;56.37;99925.28;6037668;23;19928;-85
2021/12/17 11:07:06;;;;;;;;;;;7.20;99.90;;;7.25;54.46;99942.06;6035837;23;20273;-86
2021/12/17 11:09:36;;;;;;;;;;;7.20;99.90;;;7.14;54.90;99930.94;6037147;23;19921;-85
2021/12/17 11:12:14;;;;;;;;;;;7.10;99.90;;;7.17;55.13;99925.13;6059835;23;19921;-85
2021/12/17 11:14:45;;;;;;;;;;;7.10;99.90;;;7.12;54.50;99924.97;6084395;23;19928;-85
2021/12/17 11:17:18;;;;;;;;;;;7.00;99.90;;;7.07;55.60;99922.13;6046967;23;20327;-85
2021/12/17 11:19:44;;;;;;;;;;;7.00;99.90;;;7.06;54.83;99930.44;6046759;23;19929;-85
2021/12/17 11:22:12;;;;;;;;;;;6.90;99.90;;;7.01;54.30;99914.91;6035901;23;19928;-86
2021/12/17 11:24:38;;;;;;;;;;;6.90;99.90;;;7.02;54.10;99910.31;6037867;23;20597;-85
2021/12/17 11:27:08;;;;;;;;;;;6.80;99.90;;;7.13;54.38;99920.41;6036502;23;19922;-85
2021/12/17 11:29:34;;;;;;;;;;;6.90;99.90;;;6.97;54.31;99919.09;6036677;23;19921;-86
2021/12/17 11:32:00;;;;;;;;;;;6.90;99.90;;;6.93;55.96;99924.09;6036049;23;20290;-86
2021/12/17 11:34:26;;;;;;;;;;;6.90;99.90;;;6.92;55.93;99917.06;6036999;23;20331;-85
2021/12/17 11:36:52;;;;;;;;;;;6.90;99.90;;;6.90;55.66;99924.56;6036937;23;20282;-85
2021/12/17 11:39:33;;;;;;;;;;;6.80;99.90;;;6.80;56.10;99920.72;6012049;23;19917;-86
2021/12/17 11:42:24;;;;;;;;;;;6.80;99.90;;;6.83;57.06;99901.41;6018839;23;19921;-85
2021/12/17 11:45:22;;;;;;;;;;;6.80;99.90;;;6.78;56.74;99893.16;6093174;23;20300;-85
2021/12/17 11:47:38;;;;;;;;;;;6.80;99.90;;;6.67;56.85;99911.69;6069386;23;19921;-85
2021/12/17 11:50:05;;;;;;;;;;;6.70;99.90;;;6.70;56.78;99921.22;6012951;23;20298;-85
2021/12/17 11:52:35;;;;;;;;;;;6.60;99.90;;;6.71;56.35;99918.28;6059092;23;20409;-85
2021/12/17 11:55:21;;;;;;;;;;;6.60;99.90;;;6.77;56.33;99907.66;6083873;23;19928;-86
2021/12/17 11:57:51;;;;;;;;;;;6.60;99.90;;;6.69;56.12;99927.63;6069727;23;19921;-86
2021/12/17 12:00:22;;;;;;;;;;;6.60;99.90;;;6.73;57.31;99913.50;6046977;23;19946;-85
2021/12/17 12:02:49;;;;;;;;;;;6.70;99.90;;;6.97;55.96;99929.88;6013267;23;19925;-85
2021/12/17 12:05:33;;;;;;;;;;;6.80;99.90;;;7.11;55.21;99925.19;6012602;23;19925;-85
2021/12/17 12:08:31;;;;;;;;;;;6.90;99.90;;;7.11;54.40;99915.22;6083749;23;19945;-85
2021/12/17 12:11:04;;;;;;;;;;;6.90;99.90;;;6.96;55.21;99920.13;6059123;23;19922;-85
2021/12/17 12:13:35;;;;;;;;;;;6.80;99.90;;;6.86;55.12;99919.81;6059642;23;19973;-85
2021/12/17 12:16:02;;;;;;;;;;;6.80;99.90;;;6.87;54.84;99926.84;6035858;23;19918;-85
2021/12/17 12:18:42;;;;;;;;;;;6.80;99.90;;;6.86;56.12;99912.56;6013100;23;19921;-85
2021/12/17 12:21:08;;;;;;;;;;;6.70;99.90;;;6.91;56.35;99912.72;6046081;23;19922;-85
2021/12/17 12:23:37;;;;;;;;;;;6.80;99.90;;;6.90;55.88;99911.06;6036452;23;19980;-85
2021/12/17 12:26:03;;;;;;;;;;;6.80;99.90;;;6.90;55.60;99902.97;6036052;23;19922;-85
2021/12/17 12:28:45;;;;;;;;;;;6.90;99.90;;;6.81;56.62;99904.31;6061766;23;19918;-85
2021/12/17 12:31:12;;;;;;;;;;;6.80;99.90;;;6.74;56.90;99907.09;6059871;23;20277;-85
2021/12/17 12:34:13;;;;;;;;;;;6.60;99.90;;;6.63;57.14;99921.25;6037084;23;19922;-85
2021/12/17 12:36:41;;;;;;;;;;;6.60;99.90;;;6.53;56.72;99910.16;6060843;23;19921;-85
2021/12/17 12:39:47;;;;;;;;;;;6.40;99.90;;;6.51;56.94;99913.09;6083397;23;19922;-85
2021/12/17 12:42:20;;;;;;;;;;;6.40;99.90;;;6.45;56.94;99923.91;6015313;23;20002;-86
2021/12/17 12:44:49;;;;;;;;;;;6.40;99.90;;;6.55;55.97;99916.16;6045595;23;20438;-86
2021/12/17 12:47:25;;;;;;;;;;;6.30;99.90;;;6.60;56.00;99945.97;6061204;23;19927;-86
2021/12/17 12:50:06;;;;;;;;;;;6.40;99.90;;;6.66;56.31;99917.31;6070019;23;20033;-85
2021/12/17 12:52:45;;;;;;;;;;;6.50;99.90;;;6.70;56.17;99927.44;6060475;23;19946;-86
2021/12/17 12:55:17;;;;;;;;;;;6.60;99.90;;;6.66;56.07;99934.28;6068429;23;19921;-85
2021/12/17 12:57:59;;;;;;;;;;;6.60;99.90;;;6.61;55.64;99920.66;6059905;23;20389;-85
2021/12/17 13:00:37;;;;;;;;;;;6.60;99.90;;;6.72;56.63;99922.66;6070039;23;20012;-85
2021/12/17 13:03:11;;;;;;;;;;;6.50;99.90;;;6.74;55.88;99917.00;6037641;23;19921;-85
2021/12/17 13:05:38;;;;;;;;;;;6.50;99.90;;;6.75;55.57;99915.97;6036013;23;19925;-85
2021/12/17 13:08:05;;;;;;;;;;;6.50;99.90;;;6.60;56.79;99900.13;6035921;23;19921;-85
2021/12/17 13:10:37;;;;;;;;;;;6.50;99.90;;;6.42;56.90;99911.69;6036078;23;19921;-85
2021/12/17 13:13:27;;;;;;;;;;;6.40;99.90;;;6.38;57.09;99915.84;6035387;23;19937;-85
2021/12/17 13:21:34;;;;;;;;;;;6.30;99.90;;;6.29;57.33;99923.41;6050304;23;19926;-85
2021/12/17 13:27:11;;;;;;;;;;;6.10;99.90;;;6.19;57.81;99914.97;6059742;23;20641;-85
2021/12/17 13:29:41;;;;;;;;;;;6.10;99.90;;;6.22;58.49;99911.84;6038398;23;19922;-85
2021/12/17 13:32:11;;;;;;;;;;;6.10;99.90;;;6.20;58.34;99911.22;6035700;23;19957;-85
2021/12/17 13:34:42;;;;;;;;;;;6.10;99.90;;;6.17;57.96;99914.34;6039334;23;20401;-85
2021/12/17 13:37:21;;;;;;;;;;;6.10;99.90;;;6.09;59.29;99901.16;6036010;23;19921;-85
2021/12/17 13:39:55;;;;;;;;;;;6.00;99.90;;;6.06;58.97;99931.22;6060770;23;20339;-85
2021/12/17 13:42:28;;;;;;;;;;;6.00;99.90;;;6.07;59.01;99919.41;6066547;23;20362;-85
2021/12/17 13:44:55;;;;;;;;;;;6.00;99.90;;;6.07;59.73;99917.53;6044496;23;20325;-85
2021/12/17 13:47:36;;;;;;;;;;;5.90;99.90;;;6.10;59.48;99924.34;5127009;27;20301;-78
2021/12/17 13:50:14;;;;;;;;;;;5.90;99.90;;;6.12;59.14;99935.72;5125175;27;20033;-78
2021/12/17 13:52:53;;;;;;;;;;;6.00;99.90;;;6.07;58.05;99919.41;5138644;27;20253;-78
2021/12/17 13:55:26;;;;;;;;;;;5.90;99.90;;;6.07;59.51;99895.97;5124383;27;19970;-78
2021/12/17 13:57:52;;;;;;;;;;;6.00;99.90;;;6.06;59.11;99928.53;5137383;27;19927;-78
2021/12/17 14:00:25;;;;;;;;;;;5.90;99.90;;;6.07;59.36;99928.28;5139597;27;19999;-78
2021/12/17 14:02:54;;;;;;;;;;;5.90;99.90;;;6.00;59.34;99915.91;5110749;27;19934;-78
2021/12/17 14:05:27;;;;;;;;;;;5.90;99.90;;;5.96;58.90;99922.78;5136514;27;19928;-76
2021/12/17 14:07:58;;;;;;;;;;;5.80;99.90;;;5.91;59.69;99914.50;5125093;27;20026;-78
2021/12/17 14:10:27;;;;;;;;;;;5.80;99.90;;;5.91;60.17;99927.97;5136243;27;20511;-78
2021/12/17 14:12:52;;;;;;;;;;;5.80;99.90;;;5.93;60.24;99915.94;5129750;27;19927;-78
2021/12/17 14:15:24;;;;;;;;;;;5.70;99.90;;;5.86;60.08;99913.28;5089495;27;19934;-78
2021/12/17 14:17:56;;;;;;;;;;;5.80;99.90;;;5.87;60.97;99919.47;5133675;27;19934;-78
2021/12/17 14:20:24;;;;;;;;;;;5.70;99.90;;;5.92;60.63;99918.84;5125421;27;20030;-78
2021/12/17 14:22:51;;;;;;;;;;;5.80;99.90;;;5.98;59.43;99915.28;5118417;27;19927;-77
2021/12/17 14:25:31;;;;;;;;;;;5.90;99.90;;;5.97;59.97;99924.44;5084486;28;19932;-78
2021/12/17 14:28:17;;;;;;;;;;;5.80;99.90;;;5.96;59.81;99925.47;5124621;27;19927;-78
2021/12/17 14:30:48;;;;;;;;;;;5.80;99.90;;;5.87;59.82;99927.56;5112207;27;20031;-77